sensor_id;sensor_type;location;lat;lon;timestamp;temperature;humidity
53748;DHT22;39655;53.210;5.768;2022-09-30T00:01:21;9.70;90.50
53748;DHT22;39655;53.210;5.768;2022-09-30T00:03:47;9.70;90.50
53748;DHT22;39655;53.210;5.768;2022-09-30T00:06:13;9.70;90.60
53748;DHT22;39655;53.210;5.768;2022-09-30T00:08:39;9.70;90.60
53748;DHT22;39655;53.210;5.768;2022-09-30T00:11:16;9.70;90.60
53748;DHT22;39655;53.210;5.768;2022-09-30T00:13:43;9.60;90.50
53748;DHT22;39655;53.210;5.768;2022-09-30T00:16:10;9.60;90.50
53748;DHT22;39655;53.210;5.768;2022-09-30T00:18:36;9.60;90.40
53748;DHT22;39655;53.210;5.768;2022-09-30T00:21:03;9.50;90.40
53748;DHT22;39655;53.210;5.768;2022-09-30T00:23:29;9.50;90.40
53748;DHT22;39655;53.210;5.768;2022-09-30T00:26:00;9.40;90.40
53748;DHT22;39655;53.210;5.768;2022-09-30T00:28:27;9.40;90.50
53748;DHT22;39655;53.210;5.768;2022-09-30T00:30:57;9.40;90.60
53748;DHT22;39655;53.210;5.768;2022-09-30T00:33:22;9.30;90.70
53748;DHT22;39655;53.210;5.768;2022-09-30T00:35:48;9.30;90.70
53748;DHT22;39655;53.210;5.768;2022-09-30T00:38:14;9.30;90.70
53748;DHT22;39655;53.210;5.768;2022-09-30T00:40:40;9.30;90.60
53748;DHT22;39655;53.210;5.768;2022-09-30T00:43:13;9.20;90.60
53748;DHT22;39655;53.210;5.768;2022-09-30T00:45:45;9.20;90.50
53748;DHT22;39655;53.210;5.768;2022-09-30T00:48:16;9.10;90.50
53748;DHT22;39655;53.210;5.768;2022-09-30T00:50:46;9.10;90.50
53748;DHT22;39655;53.210;5.768;2022-09-30T00:53:27;9.10;90.50
53748;DHT22;39655;53.210;5.768;2022-09-30T00:56:22;9.10;90.50
53748;DHT22;39655;53.210;5.768;2022-09-30T00:59:02;9.10;90.60
53748;DHT22;39655;53.210;5.768;2022-09-30T01:01:30;9.00;90.60
53748;DHT22;39655;53.210;5.768;2022-09-30T01:03:59;9.00;90.50
53748;DHT22;39655;53.210;5.768;2022-09-30T01:06:26;8.90;90.60
53748;DHT22;39655;53.210;5.768;2022-09-30T01:08:52;8.90;90.70
53748;DHT22;39655;53.210;5.768;2022-09-30T01:11:17;8.90;90.70
53748;DHT22;39655;53.210;5.768;2022-09-30T01:13:47;8.90;90.70
53748;DHT22;39655;53.210;5.768;2022-09-30T01:16:41;8.90;90.60
53748;DHT22;39655;53.210;5.768;2022-09-30T01:19:22;8.90;90.70
53748;DHT22;39655;53.210;5.768;2022-09-30T01:22:16;8.80;90.80
53748;DHT22;39655;53.210;5.768;2022-09-30T01:33:09;8.80;91.20
53748;DHT22;39655;53.210;5.768;2022-09-30T01:35:54;8.70;91.20
53748;DHT22;39655;53.210;5.768;2022-09-30T01:41:14;8.70;91.10
53748;DHT22;39655;53.210;5.768;2022-09-30T01:44:00;8.60;91.10
53748;DHT22;39655;53.210;5.768;2022-09-30T01:46:40;8.60;91.10
53748;DHT22;39655;53.210;5.768;2022-09-30T01:52:05;8.60;91.10
53748;DHT22;39655;53.210;5.768;2022-09-30T01:54:43;8.60;91.10
53748;DHT22;39655;53.210;5.768;2022-09-30T01:57:21;8.60;91.10
53748;DHT22;39655;53.210;5.768;2022-09-30T01:59:55;8.50;91.20
53748;DHT22;39655;53.210;5.768;2022-09-30T02:02:27;8.50;91.60
53748;DHT22;39655;53.210;5.768;2022-09-30T02:04:54;8.60;92.00
53748;DHT22;39655;53.210;5.768;2022-09-30T02:07:29;8.60;92.00
53748;DHT22;39655;53.210;5.768;2022-09-30T02:10:02;8.60;92.00
53748;DHT22;39655;53.210;5.768;2022-09-30T02:12:31;8.60;92.00
53748;DHT22;39655;53.210;5.768;2022-09-30T02:15:02;8.60;91.90
53748;DHT22;39655;53.210;5.768;2022-09-30T02:17:32;8.60;92.00
53748;DHT22;39655;53.210;5.768;2022-09-30T02:20:03;8.60;92.00
53748;DHT22;39655;53.210;5.768;2022-09-30T02:22:45;8.60;92.00
53748;DHT22;39655;53.210;5.768;2022-09-30T02:25:26;8.60;92.00
53748;DHT22;39655;53.210;5.768;2022-09-30T02:28:00;8.60;92.00
53748;DHT22;39655;53.210;5.768;2022-09-30T02:30:32;8.60;91.90
53748;DHT22;39655;53.210;5.768;2022-09-30T02:33:03;8.60;91.90
53748;DHT22;39655;53.210;5.768;2022-09-30T02:35:36;8.50;91.80
53748;DHT22;39655;53.210;5.768;2022-09-30T02:38:18;8.50;91.80
53748;DHT22;39655;53.210;5.768;2022-09-30T02:41:09;8.50;91.80
53748;DHT22;39655;53.210;5.768;2022-09-30T02:43:36;8.40;91.90
53748;DHT22;39655;53.210;5.768;2022-09-30T02:48:43;8.40;91.90
53748;DHT22;39655;53.210;5.768;2022-09-30T02:53:54;8.40;92.00
53748;DHT22;39655;53.210;5.768;2022-09-30T02:58:57;8.30;92.00
53748;DHT22;39655;53.210;5.768;2022-09-30T03:01:23;8.30;92.10
53748;DHT22;39655;53.210;5.768;2022-09-30T03:04:00;8.30;92.10
53748;DHT22;39655;53.210;5.768;2022-09-30T03:06:28;8.30;92.10
53748;DHT22;39655;53.210;5.768;2022-09-30T03:08:54;8.30;92.00
53748;DHT22;39655;53.210;5.768;2022-09-30T03:11:25;8.30;92.00
53748;DHT22;39655;53.210;5.768;2022-09-30T03:30:21;8.10;92.00
53748;DHT22;39655;53.210;5.768;2022-09-30T03:35:26;8.00;92.00
53748;DHT22;39655;53.210;5.768;2022-09-30T03:40:48;8.10;92.50
53748;DHT22;39655;53.210;5.768;2022-09-30T03:43:28;8.10;92.50
53748;DHT22;39655;53.210;5.768;2022-09-30T03:48:37;8.00;92.50
53748;DHT22;39655;53.210;5.768;2022-09-30T03:51:04;8.00;92.50
53748;DHT22;39655;53.210;5.768;2022-09-30T03:53:37;8.00;92.50
53748;DHT22;39655;53.210;5.768;2022-09-30T03:56:04;7.90;92.50
53748;DHT22;39655;53.210;5.768;2022-09-30T03:58:29;8.00;92.70
53748;DHT22;39655;53.210;5.768;2022-09-30T04:00:55;7.90;92.80
53748;DHT22;39655;53.210;5.768;2022-09-30T04:03:22;8.00;92.80
53748;DHT22;39655;53.210;5.768;2022-09-30T04:05:48;7.90;92.90
53748;DHT22;39655;53.210;5.768;2022-09-30T04:08:14;7.90;92.90
53748;DHT22;39655;53.210;5.768;2022-09-30T04:10:40;7.90;93.00
53748;DHT22;39655;53.210;5.768;2022-09-30T04:13:07;7.90;93.10
53748;DHT22;39655;53.210;5.768;2022-09-30T04:15:34;7.90;93.20
53748;DHT22;39655;53.210;5.768;2022-09-30T04:18:01;7.90;93.30
53748;DHT22;39655;53.210;5.768;2022-09-30T04:20:28;7.90;93.30
53748;DHT22;39655;53.210;5.768;2022-09-30T04:22:57;7.90;93.40
53748;DHT22;39655;53.210;5.768;2022-09-30T04:25:23;7.90;93.40
53748;DHT22;39655;53.210;5.768;2022-09-30T04:27:49;7.90;93.40
53748;DHT22;39655;53.210;5.768;2022-09-30T04:30:15;7.80;93.40
53748;DHT22;39655;53.210;5.768;2022-09-30T04:32:42;7.80;93.30
53748;DHT22;39655;53.210;5.768;2022-09-30T04:35:13;7.80;93.20
53748;DHT22;39655;53.210;5.768;2022-09-30T04:37:45;7.70;93.20
53748;DHT22;39655;53.210;5.768;2022-09-30T04:40:12;7.70;93.20
53748;DHT22;39655;53.210;5.768;2022-09-30T04:42:39;7.70;93.20
53748;DHT22;39655;53.210;5.768;2022-09-30T04:45:08;7.70;93.20
53748;DHT22;39655;53.210;5.768;2022-09-30T04:47:34;7.70;93.20
53748;DHT22;39655;53.210;5.768;2022-09-30T04:50:00;7.60;93.20
53748;DHT22;39655;53.210;5.768;2022-09-30T04:52:25;7.60;93.20
53748;DHT22;39655;53.210;5.768;2022-09-30T04:54:51;7.60;93.30
53748;DHT22;39655;53.210;5.768;2022-09-30T04:57:18;7.60;93.40
53748;DHT22;39655;53.210;5.768;2022-09-30T04:59:44;7.60;93.30
53748;DHT22;39655;53.210;5.768;2022-09-30T05:02:10;7.60;93.40
53748;DHT22;39655;53.210;5.768;2022-09-30T05:04:37;7.60;93.60
53748;DHT22;39655;53.210;5.768;2022-09-30T05:07:04;7.60;93.60
53748;DHT22;39655;53.210;5.768;2022-09-30T05:09:34;7.60;93.50
53748;DHT22;39655;53.210;5.768;2022-09-30T05:12:00;7.60;93.50
53748;DHT22;39655;53.210;5.768;2022-09-30T05:14:27;7.50;93.50
53748;DHT22;39655;53.210;5.768;2022-09-30T05:16:54;7.50;93.50
53748;DHT22;39655;53.210;5.768;2022-09-30T05:19:19;7.40;93.50
53748;DHT22;39655;53.210;5.768;2022-09-30T05:21:45;7.50;93.70
53748;DHT22;39655;53.210;5.768;2022-09-30T05:24:11;7.50;93.80
53748;DHT22;39655;53.210;5.768;2022-09-30T05:26:43;7.50;93.80
53748;DHT22;39655;53.210;5.768;2022-09-30T05:29:09;7.50;93.90
53748;DHT22;39655;53.210;5.768;2022-09-30T05:31:35;7.50;94.00
53748;DHT22;39655;53.210;5.768;2022-09-30T05:34:01;7.60;94.00
53748;DHT22;39655;53.210;5.768;2022-09-30T05:36:26;7.60;94.10
53748;DHT22;39655;53.210;5.768;2022-09-30T05:38:53;7.60;94.10
53748;DHT22;39655;53.210;5.768;2022-09-30T05:41:19;7.60;94.20
53748;DHT22;39655;53.210;5.768;2022-09-30T05:43:48;7.60;94.20
53748;DHT22;39655;53.210;5.768;2022-09-30T05:46:17;7.50;94.20
53748;DHT22;39655;53.210;5.768;2022-09-30T05:48:44;7.50;94.30
53748;DHT22;39655;53.210;5.768;2022-09-30T05:51:11;7.50;94.30
53748;DHT22;39655;53.210;5.768;2022-09-30T05:53:38;7.50;94.40
53748;DHT22;39655;53.210;5.768;2022-09-30T05:56:08;7.50;94.50
53748;DHT22;39655;53.210;5.768;2022-09-30T05:58:35;7.60;94.60
53748;DHT22;39655;53.210;5.768;2022-09-30T06:01:10;7.50;94.50
53748;DHT22;39655;53.210;5.768;2022-09-30T06:03:36;7.50;94.60
53748;DHT22;39655;53.210;5.768;2022-09-30T06:06:06;7.50;94.60
53748;DHT22;39655;53.210;5.768;2022-09-30T06:08:32;7.50;94.50
53748;DHT22;39655;53.210;5.768;2022-09-30T06:10:58;7.50;94.50
53748;DHT22;39655;53.210;5.768;2022-09-30T06:13:25;7.50;94.50
53748;DHT22;39655;53.210;5.768;2022-09-30T06:15:57;7.60;94.60
53748;DHT22;39655;53.210;5.768;2022-09-30T06:18:24;7.60;94.60
53748;DHT22;39655;53.210;5.768;2022-09-30T06:20:54;7.70;94.70
53748;DHT22;39655;53.210;5.768;2022-09-30T06:23:20;7.70;94.60
53748;DHT22;39655;53.210;5.768;2022-09-30T06:25:49;7.70;94.70
53748;DHT22;39655;53.210;5.768;2022-09-30T06:28:16;7.70;94.70
53748;DHT22;39655;53.210;5.768;2022-09-30T06:30:43;7.80;94.70
53748;DHT22;39655;53.210;5.768;2022-09-30T06:33:09;7.80;94.80
53748;DHT22;39655;53.210;5.768;2022-09-30T06:35:37;7.90;94.80
53748;DHT22;39655;53.210;5.768;2022-09-30T06:38:07;7.90;94.90
53748;DHT22;39655;53.210;5.768;2022-09-30T06:40:32;8.10;95.10
53748;DHT22;39655;53.210;5.768;2022-09-30T06:42:59;8.20;95.20
53748;DHT22;39655;53.210;5.768;2022-09-30T06:45:26;8.30;95.30
53748;DHT22;39655;53.210;5.768;2022-09-30T06:47:56;8.30;95.30
53748;DHT22;39655;53.210;5.768;2022-09-30T06:50:22;8.30;95.30
53748;DHT22;39655;53.210;5.768;2022-09-30T06:52:47;8.40;95.30
53748;DHT22;39655;53.210;5.768;2022-09-30T06:55:13;8.40;95.30
53748;DHT22;39655;53.210;5.768;2022-09-30T06:57:42;8.50;95.40
53748;DHT22;39655;53.210;5.768;2022-09-30T07:00:09;8.60;95.40
53748;DHT22;39655;53.210;5.768;2022-09-30T07:02:38;8.70;95.60
53748;DHT22;39655;53.210;5.768;2022-09-30T07:05:05;8.70;95.60
53748;DHT22;39655;53.210;5.768;2022-09-30T07:07:31;8.90;95.60
53748;DHT22;39655;53.210;5.768;2022-09-30T07:09:59;8.90;95.70
53748;DHT22;39655;53.210;5.768;2022-09-30T07:12:25;9.00;95.70
53748;DHT22;39655;53.210;5.768;2022-09-30T07:14:54;9.00;95.70
53748;DHT22;39655;53.210;5.768;2022-09-30T07:17:25;9.10;95.80
53748;DHT22;39655;53.210;5.768;2022-09-30T07:19:51;9.10;95.80
53748;DHT22;39655;53.210;5.768;2022-09-30T07:22:18;9.20;95.80
53748;DHT22;39655;53.210;5.768;2022-09-30T07:24:59;9.20;95.70
53748;DHT22;39655;53.210;5.768;2022-09-30T07:27:31;9.30;95.80
53748;DHT22;39655;53.210;5.768;2022-09-30T07:29:57;9.40;95.80
53748;DHT22;39655;53.210;5.768;2022-09-30T07:32:23;9.40;95.80
53748;DHT22;39655;53.210;5.768;2022-09-30T07:34:49;9.50;95.90
53748;DHT22;39655;53.210;5.768;2022-09-30T07:37:17;9.60;95.90
53748;DHT22;39655;53.210;5.768;2022-09-30T07:39:45;9.70;96.00
53748;DHT22;39655;53.210;5.768;2022-09-30T07:42:14;9.80;96.10
53748;DHT22;39655;53.210;5.768;2022-09-30T07:44:40;9.90;96.10
53748;DHT22;39655;53.210;5.768;2022-09-30T07:47:09;9.90;96.00
53748;DHT22;39655;53.210;5.768;2022-09-30T07:49:36;10.00;96.00
53748;DHT22;39655;53.210;5.768;2022-09-30T07:52:03;10.10;96.10
53748;DHT22;39655;53.210;5.768;2022-09-30T07:54:31;10.20;96.20
53748;DHT22;39655;53.210;5.768;2022-09-30T07:56:58;10.20;96.20
53748;DHT22;39655;53.210;5.768;2022-09-30T07:59:26;10.40;96.20
53748;DHT22;39655;53.210;5.768;2022-09-30T08:01:52;10.50;96.20
53748;DHT22;39655;53.210;5.768;2022-09-30T08:04:18;10.60;96.30
53748;DHT22;39655;53.210;5.768;2022-09-30T08:06:48;10.70;96.30
53748;DHT22;39655;53.210;5.768;2022-09-30T08:09:16;10.80;96.30
53748;DHT22;39655;53.210;5.768;2022-09-30T08:11:42;10.90;96.30
53748;DHT22;39655;53.210;5.768;2022-09-30T08:14:16;11.10;96.30
53748;DHT22;39655;53.210;5.768;2022-09-30T08:16:42;11.10;96.20
53748;DHT22;39655;53.210;5.768;2022-09-30T08:19:16;11.20;96.10
53748;DHT22;39655;53.210;5.768;2022-09-30T08:21:43;11.30;96.00
53748;DHT22;39655;53.210;5.768;2022-09-30T08:24:09;11.30;95.90
53748;DHT22;39655;53.210;5.768;2022-09-30T08:26:36;11.40;95.80
53748;DHT22;39655;53.210;5.768;2022-09-30T08:29:01;11.50;95.70
53748;DHT22;39655;53.210;5.768;2022-09-30T08:31:27;11.60;95.40
53748;DHT22;39655;53.210;5.768;2022-09-30T08:33:53;11.60;95.30
53748;DHT22;39655;53.210;5.768;2022-09-30T08:36:21;11.70;94.80
53748;DHT22;39655;53.210;5.768;2022-09-30T08:38:48;11.80;94.00
53748;DHT22;39655;53.210;5.768;2022-09-30T08:44:40;12.00;93.50
53748;DHT22;39655;53.210;5.768;2022-09-30T08:50:16;12.10;91.90
53748;DHT22;39655;53.210;5.768;2022-09-30T08:52:49;12.20;91.40
53748;DHT22;39655;53.210;5.768;2022-09-30T08:55:24;12.30;91.30
53748;DHT22;39655;53.210;5.768;2022-09-30T08:57:52;12.30;90.70
53748;DHT22;39655;53.210;5.768;2022-09-30T09:00:20;12.40;90.30
53748;DHT22;39655;53.210;5.768;2022-09-30T09:02:53;12.50;90.50
53748;DHT22;39655;53.210;5.768;2022-09-30T09:10:45;12.70;89.30
53748;DHT22;39655;53.210;5.768;2022-09-30T09:19:16;13.00;88.60
53748;DHT22;39655;53.210;5.768;2022-09-30T09:22:06;13.00;88.90
53748;DHT22;39655;53.210;5.768;2022-09-30T09:24:40;13.10;88.20
53748;DHT22;39655;53.210;5.768;2022-09-30T09:27:25;13.20;88.00
53748;DHT22;39655;53.210;5.768;2022-09-30T09:29:58;13.30;88.20
53748;DHT22;39655;53.210;5.768;2022-09-30T09:32:26;13.40;87.40
53748;DHT22;39655;53.210;5.768;2022-09-30T09:34:58;13.30;86.20
53748;DHT22;39655;53.210;5.768;2022-09-30T09:37:49;13.30;86.40
53748;DHT22;39655;53.210;5.768;2022-09-30T09:40:41;13.40;87.00
53748;DHT22;39655;53.210;5.768;2022-09-30T09:43:20;13.60;86.30
53748;DHT22;39655;53.210;5.768;2022-09-30T09:46:32;13.70;85.50
53748;DHT22;39655;53.210;5.768;2022-09-30T09:54:33;13.90;83.80
53748;DHT22;39655;53.210;5.768;2022-09-30T09:57:12;13.90;83.70
53748;DHT22;39655;53.210;5.768;2022-09-30T10:03:05;14.10;83.10
53748;DHT22;39655;53.210;5.768;2022-09-30T10:05:35;14.20;82.70
53748;DHT22;39655;53.210;5.768;2022-09-30T10:08:13;14.20;82.10
53748;DHT22;39655;53.210;5.768;2022-09-30T10:10:56;14.40;81.20
53748;DHT22;39655;53.210;5.768;2022-09-30T10:13:25;14.40;80.40
53748;DHT22;39655;53.210;5.768;2022-09-30T10:15:54;14.50;81.00
53748;DHT22;39655;53.210;5.768;2022-09-30T10:18:32;14.60;79.50
53748;DHT22;39655;53.210;5.768;2022-09-30T10:21:06;14.60;80.60
53748;DHT22;39655;53.210;5.768;2022-09-30T10:23:37;14.60;78.30
53748;DHT22;39655;53.210;5.768;2022-09-30T10:26:19;14.70;78.40
53748;DHT22;39655;53.210;5.768;2022-09-30T10:28:57;14.70;77.80
53748;DHT22;39655;53.210;5.768;2022-09-30T10:36:22;14.90;78.50
53748;DHT22;39655;53.210;5.768;2022-09-30T10:39:00;14.90;79.10
53748;DHT22;39655;53.210;5.768;2022-09-30T10:41:29;15.00;78.60
53748;DHT22;39655;53.210;5.768;2022-09-30T10:44:01;15.00;78.70
53748;DHT22;39655;53.210;5.768;2022-09-30T10:46:38;15.20;79.90
53748;DHT22;39655;53.210;5.768;2022-09-30T10:49:10;15.40;78.10
53748;DHT22;39655;53.210;5.768;2022-09-30T10:51:36;15.50;75.50
53748;DHT22;39655;53.210;5.768;2022-09-30T10:54:04;15.50;76.40
53748;DHT22;39655;53.210;5.768;2022-09-30T10:56:38;15.60;76.70
53748;DHT22;39655;53.210;5.768;2022-09-30T10:59:33;15.60;75.60
53748;DHT22;39655;53.210;5.768;2022-09-30T11:02:34;15.60;75.30
53748;DHT22;39655;53.210;5.768;2022-09-30T11:05:25;15.60;75.30
53748;DHT22;39655;53.210;5.768;2022-09-30T11:08:08;15.70;76.00
53748;DHT22;39655;53.210;5.768;2022-09-30T11:10:59;15.80;74.80
53748;DHT22;39655;53.210;5.768;2022-09-30T11:21:48;15.50;73.00
53748;DHT22;39655;53.210;5.768;2022-09-30T11:38:04;15.90;68.80
53748;DHT22;39655;53.210;5.768;2022-09-30T11:40:52;16.00;69.90
53748;DHT22;39655;53.210;5.768;2022-09-30T11:48:43;16.10;71.20
53748;DHT22;39655;53.210;5.768;2022-09-30T11:59:45;16.30;72.30
53748;DHT22;39655;53.210;5.768;2022-09-30T12:02:28;16.50;71.60
53748;DHT22;39655;53.210;5.768;2022-09-30T12:05:02;16.50;71.20
53748;DHT22;39655;53.210;5.768;2022-09-30T12:10:31;16.60;70.60
53748;DHT22;39655;53.210;5.768;2022-09-30T12:13:05;16.60;70.40
53748;DHT22;39655;53.210;5.768;2022-09-30T12:15:41;16.50;70.00
53748;DHT22;39655;53.210;5.768;2022-09-30T12:18:13;16.60;71.40
53748;DHT22;39655;53.210;5.768;2022-09-30T12:20:52;16.60;71.30
53748;DHT22;39655;53.210;5.768;2022-09-30T12:23:52;16.70;71.20
53748;DHT22;39655;53.210;5.768;2022-09-30T12:26:19;16.70;70.20
53748;DHT22;39655;53.210;5.768;2022-09-30T12:29:01;16.70;71.00
53748;DHT22;39655;53.210;5.768;2022-09-30T12:40:49;17.00;69.60
53748;DHT22;39655;53.210;5.768;2022-09-30T12:48:46;17.10;68.50
53748;DHT22;39655;53.210;5.768;2022-09-30T12:51:29;17.10;68.90
53748;DHT22;39655;53.210;5.768;2022-09-30T12:54:17;17.30;69.80
53748;DHT22;39655;53.210;5.768;2022-09-30T12:56:46;17.30;67.70
53748;DHT22;39655;53.210;5.768;2022-09-30T12:59:27;17.30;67.50
53748;DHT22;39655;53.210;5.768;2022-09-30T13:01:55;17.30;68.50
53748;DHT22;39655;53.210;5.768;2022-09-30T13:04:36;17.60;68.30
53748;DHT22;39655;53.210;5.768;2022-09-30T13:07:38;17.60;66.60
53748;DHT22;39655;53.210;5.768;2022-09-30T13:10:00;17.70;66.50
53748;DHT22;39655;53.210;5.768;2022-09-30T13:18:54;17.80;66.40
53748;DHT22;39655;53.210;5.768;2022-09-30T13:26:54;17.90;65.50
53748;DHT22;39655;53.210;5.768;2022-09-30T13:29:44;17.80;62.90
53748;DHT22;39655;53.210;5.768;2022-09-30T13:34:22;17.90;63.70
53748;DHT22;39655;53.210;5.768;2022-09-30T13:42:13;17.80;63.90
53748;DHT22;39655;53.210;5.768;2022-09-30T13:50:31;17.80;63.60
53748;DHT22;39655;53.210;5.768;2022-09-30T13:53:04;17.70;63.10
53748;DHT22;39655;53.210;5.768;2022-09-30T13:55:41;17.50;62.40
53748;DHT22;39655;53.210;5.768;2022-09-30T14:00:46;17.30;63.50
53748;DHT22;39655;53.210;5.768;2022-09-30T14:03:45;17.30;64.20
53748;DHT22;39655;53.210;5.768;2022-09-30T14:12:14;17.60;64.10
53748;DHT22;39655;53.210;5.768;2022-09-30T14:14:56;17.60;63.40
53748;DHT22;39655;53.210;5.768;2022-09-30T14:17:52;17.50;63.70
53748;DHT22;39655;53.210;5.768;2022-09-30T14:20:49;17.40;63.40
53748;DHT22;39655;53.210;5.768;2022-09-30T14:23:17;17.30;63.90
53748;DHT22;39655;53.210;5.768;2022-09-30T14:25:53;17.20;64.20
53748;DHT22;39655;53.210;5.768;2022-09-30T14:28:33;17.20;64.00
53748;DHT22;39655;53.210;5.768;2022-09-30T14:31:01;17.20;64.10
53748;DHT22;39655;53.210;5.768;2022-09-30T14:33:33;17.20;64.30
53748;DHT22;39655;53.210;5.768;2022-09-30T14:36:01;17.30;65.40
53748;DHT22;39655;53.210;5.768;2022-09-30T14:38:31;17.40;64.00
53748;DHT22;39655;53.210;5.768;2022-09-30T14:41:01;17.40;63.90
53748;DHT22;39655;53.210;5.768;2022-09-30T14:43:35;17.30;64.10
53748;DHT22;39655;53.210;5.768;2022-09-30T14:46:17;17.30;64.90
53748;DHT22;39655;53.210;5.768;2022-09-30T14:48:45;17.30;64.60
53748;DHT22;39655;53.210;5.768;2022-09-30T14:51:14;17.30;64.80
53748;DHT22;39655;53.210;5.768;2022-09-30T14:53:58;17.30;65.60
53748;DHT22;39655;53.210;5.768;2022-09-30T14:56:29;17.60;64.90
53748;DHT22;39655;53.210;5.768;2022-09-30T14:58:56;17.70;64.80
53748;DHT22;39655;53.210;5.768;2022-09-30T15:01:22;17.90;64.20
53748;DHT22;39655;53.210;5.768;2022-09-30T15:04:09;18.10;64.10
53748;DHT22;39655;53.210;5.768;2022-09-30T15:06:37;18.20;62.60
53748;DHT22;39655;53.210;5.768;2022-09-30T15:09:14;18.40;61.80
53748;DHT22;39655;53.210;5.768;2022-09-30T15:11:41;18.50;61.60
53748;DHT22;39655;53.210;5.768;2022-09-30T15:14:18;18.60;61.10
53748;DHT22;39655;53.210;5.768;2022-09-30T15:16:55;18.70;61.70
53748;DHT22;39655;53.210;5.768;2022-09-30T15:19:27;18.60;60.70
53748;DHT22;39655;53.210;5.768;2022-09-30T15:21:56;18.60;62.20
53748;DHT22;39655;53.210;5.768;2022-09-30T15:24:25;18.60;61.90
53748;DHT22;39655;53.210;5.768;2022-09-30T15:26:52;18.30;61.80
53748;DHT22;39655;53.210;5.768;2022-09-30T15:29:20;18.20;62.90
53748;DHT22;39655;53.210;5.768;2022-09-30T15:31:53;18.00;63.30
53748;DHT22;39655;53.210;5.768;2022-09-30T15:34:24;17.80;64.20
53748;DHT22;39655;53.210;5.768;2022-09-30T15:37:01;17.70;65.00
53748;DHT22;39655;53.210;5.768;2022-09-30T15:39:44;17.60;65.40
53748;DHT22;39655;53.210;5.768;2022-09-30T15:42:56;17.60;65.70
53748;DHT22;39655;53.210;5.768;2022-09-30T15:45:32;17.50;66.40
53748;DHT22;39655;53.210;5.768;2022-09-30T15:55:53;17.20;68.80
53748;DHT22;39655;53.210;5.768;2022-09-30T15:58:29;17.10;68.90
53748;DHT22;39655;53.210;5.768;2022-09-30T16:01:23;17.10;69.60
53748;DHT22;39655;53.210;5.768;2022-09-30T16:04:02;17.00;69.60
53748;DHT22;39655;53.210;5.768;2022-09-30T16:06:32;17.00;70.40
53748;DHT22;39655;53.210;5.768;2022-09-30T16:09:05;16.90;70.60
53748;DHT22;39655;53.210;5.768;2022-09-30T16:11:35;16.80;70.50
53748;DHT22;39655;53.210;5.768;2022-09-30T16:14:03;16.70;70.30
53748;DHT22;39655;53.210;5.768;2022-09-30T16:16:32;16.60;70.70
53748;DHT22;39655;53.210;5.768;2022-09-30T16:18:59;16.60;70.70
53748;DHT22;39655;53.210;5.768;2022-09-30T16:21:43;16.50;70.70
53748;DHT22;39655;53.210;5.768;2022-09-30T16:26:53;16.40;70.80
53748;DHT22;39655;53.210;5.768;2022-09-30T16:29:20;16.40;70.40
53748;DHT22;39655;53.210;5.768;2022-09-30T16:31:49;16.40;70.60
53748;DHT22;39655;53.210;5.768;2022-09-30T16:34:22;16.30;70.30
53748;DHT22;39655;53.210;5.768;2022-09-30T16:36:48;16.30;70.50
53748;DHT22;39655;53.210;5.768;2022-09-30T16:39:17;16.20;70.80
53748;DHT22;39655;53.210;5.768;2022-09-30T16:41:44;16.20;70.50
53748;DHT22;39655;53.210;5.768;2022-09-30T16:44:11;16.10;70.80
53748;DHT22;39655;53.210;5.768;2022-09-30T16:46:38;16.10;71.10
53748;DHT22;39655;53.210;5.768;2022-09-30T16:49:19;16.10;71.30
53748;DHT22;39655;53.210;5.768;2022-09-30T16:51:45;16.10;71.50
53748;DHT22;39655;53.210;5.768;2022-09-30T16:54:11;16.00;71.70
53748;DHT22;39655;53.210;5.768;2022-09-30T16:56:37;15.90;72.00
53748;DHT22;39655;53.210;5.768;2022-09-30T16:59:08;15.90;72.00
53748;DHT22;39655;53.210;5.768;2022-09-30T17:01:37;15.90;72.10
53748;DHT22;39655;53.210;5.768;2022-09-30T17:04:03;15.80;72.30
53748;DHT22;39655;53.210;5.768;2022-09-30T17:06:30;15.70;72.50
53748;DHT22;39655;53.210;5.768;2022-09-30T17:08:56;15.70;72.50
53748;DHT22;39655;53.210;5.768;2022-09-30T17:11:24;15.60;72.40
53748;DHT22;39655;53.210;5.768;2022-09-30T17:13:56;15.50;71.70
53748;DHT22;39655;53.210;5.768;2022-09-30T17:16:22;15.60;72.00
53748;DHT22;39655;53.210;5.768;2022-09-30T17:18:48;15.50;72.20
53748;DHT22;39655;53.210;5.768;2022-09-30T17:21:22;15.40;71.40
53748;DHT22;39655;53.210;5.768;2022-09-30T17:23:49;15.40;71.30
53748;DHT22;39655;53.210;5.768;2022-09-30T17:26:15;15.30;71.00
53748;DHT22;39655;53.210;5.768;2022-09-30T17:28:41;15.20;70.40
53748;DHT22;39655;53.210;5.768;2022-09-30T17:31:07;15.20;70.90
53748;DHT22;39655;53.210;5.768;2022-09-30T17:33:38;15.10;70.80
53748;DHT22;39655;53.210;5.768;2022-09-30T17:36:07;15.10;71.30
53748;DHT22;39655;53.210;5.768;2022-09-30T17:38:34;15.00;71.40
53748;DHT22;39655;53.210;5.768;2022-09-30T17:41:00;15.00;71.70
53748;DHT22;39655;53.210;5.768;2022-09-30T17:43:45;14.90;71.90
53748;DHT22;39655;53.210;5.768;2022-09-30T17:46:14;14.90;72.50
53748;DHT22;39655;53.210;5.768;2022-09-30T17:48:46;14.80;73.10
53748;DHT22;39655;53.210;5.768;2022-09-30T17:51:15;14.80;73.50
53748;DHT22;39655;53.210;5.768;2022-09-30T17:53:41;14.70;73.90
53748;DHT22;39655;53.210;5.768;2022-09-30T17:56:19;14.70;74.00
53748;DHT22;39655;53.210;5.768;2022-09-30T17:58:47;14.60;74.50
53748;DHT22;39655;53.210;5.768;2022-09-30T18:01:17;14.60;74.70
53748;DHT22;39655;53.210;5.768;2022-09-30T18:03:43;14.50;74.70
53748;DHT22;39655;53.210;5.768;2022-09-30T18:06:10;14.50;74.50
53748;DHT22;39655;53.210;5.768;2022-09-30T18:08:38;14.50;74.40
53748;DHT22;39655;53.210;5.768;2022-09-30T18:11:04;14.50;74.40
53748;DHT22;39655;53.210;5.768;2022-09-30T18:13:30;14.50;74.40
53748;DHT22;39655;53.210;5.768;2022-09-30T18:15:56;14.50;74.20
53748;DHT22;39655;53.210;5.768;2022-09-30T18:18:27;14.50;74.20
53748;DHT22;39655;53.210;5.768;2022-09-30T18:20:53;14.50;74.20
53748;DHT22;39655;53.210;5.768;2022-09-30T18:23:18;14.50;74.10
53748;DHT22;39655;53.210;5.768;2022-09-30T18:25:45;14.50;74.30
53748;DHT22;39655;53.210;5.768;2022-09-30T18:28:12;14.50;74.30
53748;DHT22;39655;53.210;5.768;2022-09-30T18:30:39;14.50;73.90
53748;DHT22;39655;53.210;5.768;2022-09-30T18:33:08;14.50;73.80
53748;DHT22;39655;53.210;5.768;2022-09-30T18:35:37;14.40;73.90
53748;DHT22;39655;53.210;5.768;2022-09-30T18:38:04;14.40;73.20
53748;DHT22;39655;53.210;5.768;2022-09-30T18:40:30;14.40;72.80
53748;DHT22;39655;53.210;5.768;2022-09-30T18:43:01;14.40;72.80
53748;DHT22;39655;53.210;5.768;2022-09-30T18:45:31;14.40;73.00
53748;DHT22;39655;53.210;5.768;2022-09-30T18:48:00;14.40;72.80
53748;DHT22;39655;53.210;5.768;2022-09-30T18:50:27;14.40;73.30
53748;DHT22;39655;53.210;5.768;2022-09-30T18:52:54;14.40;73.10
53748;DHT22;39655;53.210;5.768;2022-09-30T18:55:20;14.40;73.30
53748;DHT22;39655;53.210;5.768;2022-09-30T18:57:46;14.40;73.40
53748;DHT22;39655;53.210;5.768;2022-09-30T19:00:16;14.40;73.40